Portada
METAR-TAF:

METAR-TAF

Aeroports :

Aeroport de Jiddah Rei Abdulaziz

Jiddah, Aràbia Saudita

latitud: 21-42N, longitud: 039-11E, altitud: 15 m

Observació

L'informe es va fer fa 55 minuts, a les 05:00 UTC
Vent 6 kt del Nord/Nord-Oest
Temperatura 23°C
Humitat 69%
Pressió 1012 hPa
Visibilitat: 7000 m
Cel clar

METAR: OEJN 290500Z 33006KT 7000 SKC 23/17 Q1012 NOSIG

Hora: 08:55 (05:55 UTC)

Pronòstic

L'informe es va fer fa 55 minuts, a les 05:00 UTC
Pronòstic vàlid del 29 a les 06 UTC al 30 a les 12 UTC
Vent 10 kt del Nord-Oest amb ràfegues de 20 kt
Visibilitat: 7000 m
Escasses núvols a una alçada de 4000 ft
Evolucionant progressivament
l' 29 a les 16 UTC al 29 a les 18 UTC
Vent 8 kt del Nord/Nord-Est

TAF: OEJN 290500Z 2906/3012 32010G20KT 7000 FEW040 BECMG 2916/2918 03008KT

Observacions i pronòstics meteorològics de més de 4000 aeroports (METAR i TAF).

Les estacions disponibles són els punts grocs i vermells al mapa.

Posi el ratolí al punt desitjat per veure el nom de l'estació.

Feu clic per veure les observacions i els pronòstics meteorològics.

Per canviar el mapa: feu clic els botons verds amb una creu de color negre per apropar; al botó verd amb un guió per allunyar la imatge; o en les fletxes verdes per a mapes adjacents.


METAR-TAF: